Time;durP1;ratioP1;P1;durP2;ratioP2;P2;SDS_P1;SDS_P2;PMS_P1;PMS_P2;Temp;Humidity;BMP_temperature;BMP_pressure;BME280_temperature;BME280_humidity;BME280_pressure;Samples;Min_cycle;Max_cycle;Signal;HPM_P1;HPM_P2
2022/06/29 00:00:50;;;;;;;9.35;3.70;;;18.90;99.90;;;;;;5052850;28;20048;-76
2022/06/29 00:03:15;;;;;;;7.15;4.10;;;18.90;99.90;;;;;;5052755;28;20126;-76
2022/06/29 00:05:41;;;;;;;5.75;3.78;;;18.90;99.90;;;;;;5052902;28;20499;-75
2022/06/29 00:08:07;;;;;;;6.03;4.43;;;18.90;99.90;;;;;;5069180;28;20499;-75
2022/06/29 00:10:34;;;;;;;8.88;4.55;;;18.90;99.90;;;;;;5052459;28;20460;-76
2022/06/29 00:13:00;;;;;;;9.55;4.00;;;18.80;99.90;;;;;;5052518;28;20049;-75
2022/06/29 00:15:26;;;;;;;5.20;3.60;;;18.80;99.90;;;;;;5052609;28;20052;-75
2022/06/29 00:17:51;;;;;;;5.82;4.00;;;18.80;99.90;;;;;;5052224;28;20044;-76
2022/06/29 00:20:17;;;;;;;6.65;3.72;;;18.70;99.90;;;;;;5035995;28;20056;-75
2022/06/29 00:22:44;;;;;;;5.65;3.65;;;18.70;99.90;;;;;;5052531;28;20049;-75
2022/06/29 00:25:11;;;;;;;5.93;3.70;;;18.60;99.90;;;;;;5052521;28;20052;-76
2022/06/29 00:27:38;;;;;;;5.32;3.70;;;18.60;99.90;;;;;;5052516;28;20044;-75
2022/06/29 00:30:04;;;;;;;5.82;3.10;;;18.60;99.90;;;;;;5052230;28;20044;-75
2022/06/29 00:32:30;;;;;;;9.73;5.00;;;18.70;99.90;;;;;;5052429;28;20048;-75
2022/06/29 00:34:57;;;;;;;7.65;3.83;;;18.60;99.90;;;;;;5053050;28;20115;-75
2022/06/29 00:37:23;;;;;;;7.13;3.90;;;18.60;99.90;;;;;;5051792;28;20053;-76
2022/06/29 00:39:49;;;;;;;6.88;3.85;;;18.50;99.90;;;;;;5052519;28;20048;-75
2022/06/29 00:42:15;;;;;;;6.90;3.72;;;18.50;99.90;;;;;;5052012;28;20546;-75
2022/06/29 00:44:40;;;;;;;6.80;4.22;;;18.40;99.90;;;;;;5052396;28;20053;-75
2022/06/29 00:47:06;;;;;;;7.38;4.05;;;18.40;99.90;;;;;;5052301;28;20049;-75
2022/06/29 00:49:33;;;;;;;8.20;3.80;;;18.30;99.90;;;;;;5069029;28;20565;-75
2022/06/29 00:52:07;;;;;;;5.82;4.10;;;18.30;99.90;;;;;;5052044;28;20425;-75
2022/06/29 00:54:45;;;;;;;8.40;4.45;;;18.40;99.90;;;;;;5052284;28;20052;-75
2022/06/29 00:57:15;;;;;;;8.55;4.13;;;18.40;99.90;;;;;;5053221;28;20057;-75
2022/06/29 00:59:44;;;;;;;7.60;4.82;;;18.40;99.90;;;;;;5056178;28;20049;-75
2022/06/29 01:02:10;;;;;;;6.28;4.05;;;18.40;99.90;;;;;;5055822;28;20124;-75
2022/06/29 01:04:37;;;;;;;8.02;4.22;;;18.30;99.90;;;;;;5039439;28;20538;-75
2022/06/29 01:07:03;;;;;;;7.72;4.20;;;18.30;99.90;;;;;;5055970;28;20522;-75
2022/06/29 01:09:30;;;;;;;7.57;4.85;;;18.30;99.90;;;;;;5056012;28;20049;-75
2022/06/29 01:11:58;;;;;;;7.63;4.07;;;18.20;99.90;;;;;;5055616;28;20053;-75
2022/06/29 01:14:24;;;;;;;9.25;4.70;;;18.30;99.90;;;;;;5055934;28;20041;-75
2022/06/29 01:16:49;;;;;;;7.93;4.50;;;18.20;99.90;;;;;;5055621;28;20041;-75
2022/06/29 01:19:15;;;;;;;9.00;4.95;;;18.20;99.90;;;;;;5055899;28;20495;-75
2022/06/29 01:21:44;;;;;;;10.55;4.40;;;18.20;99.90;;;;;;5055747;28;20376;-75
2022/06/29 01:24:10;;;;;;;7.47;4.63;;;18.10;99.90;;;;;;5055951;28;20049;-75
2022/06/29 01:26:36;;;;;;;7.60;4.10;;;18.20;99.90;;;;;;5055654;28;20079;-75
2022/06/29 01:29:02;;;;;;;8.13;4.50;;;18.10;99.90;;;;;;5055650;28;20060;-75
2022/06/29 01:31:27;;;;;;;8.20;4.93;;;18.10;99.90;;;;;;5072770;28;20045;-75
2022/06/29 01:33:53;;;;;;;7.47;4.60;;;18.10;99.90;;;;;;5055613;28;20048;-75
2022/06/29 01:36:19;;;;;;;7.28;4.50;;;18.00;99.90;;;;;;5055258;28;20057;-75
2022/06/29 01:38:44;;;;;;;6.50;4.13;;;18.00;99.90;;;;;;5055534;28;20071;-76
2022/06/29 01:41:10;;;;;;;10.23;5.30;;;18.00;99.90;;;;;;5055111;28;20049;-75
2022/06/29 01:43:40;;;;;;;10.10;4.35;;;18.00;99.90;;;;;;5055316;28;20055;-75
2022/06/29 01:46:06;;;;;;;7.90;4.88;;;18.00;99.90;;;;;;5055447;28;20041;-75
2022/06/29 01:48:32;;;;;;;8.05;4.38;;;18.00;99.90;;;;;;5055232;28;20114;-75
2022/06/29 01:50:58;;;;;;;7.68;5.15;;;18.00;99.90;;;;;;5054919;28;20053;-76
2022/06/29 01:53:24;;;;;;;7.25;5.18;;;18.00;99.90;;;;;;5055237;28;20462;-75
2022/06/29 01:55:50;;;;;;;6.28;4.65;;;18.00;99.90;;;;;;5054914;28;20144;-76
2022/06/29 01:58:16;;;;;;;6.05;4.55;;;18.10;99.90;;;;;;5055189;28;20120;-75
2022/06/29 02:00:43;;;;;;;7.95;4.85;;;18.10;99.90;;;;;;5055026;28;20056;-75
2022/06/29 02:03:09;;;;;;;8.30;5.35;;;18.10;99.90;;;;;;5054722;28;20053;-75
2022/06/29 02:05:35;;;;;;;8.15;5.00;;;18.20;99.90;;;;;;5054890;28;20049;-75
2022/06/29 02:08:01;;;;;;;6.15;5.20;;;18.20;99.90;;;;;;5054430;28;20057;-76
2022/06/29 02:10:27;;;;;;;9.82;5.13;;;18.20;99.90;;;;;;5054508;28;20388;-75
2022/06/29 02:12:53;;;;;;;8.45;5.53;;;18.30;99.90;;;;;;5054506;28;20573;-75
2022/06/29 02:15:18;;;;;;;10.25;6.53;;;18.20;99.90;;;;;;5071659;28;20041;-75
2022/06/29 02:17:44;;;;;;;7.35;4.97;;;18.30;99.90;;;;;;5054617;28;20507;-76
2022/06/29 02:20:11;;;;;;;5.35;4.28;;;18.30;99.90;;;;;;5055661;28;20182;-75
2022/06/29 02:22:37;;;;;;;6.65;4.70;;;18.30;99.90;;;;;;5054584;28;20057;-75
2022/06/29 02:25:03;;;;;;;5.38;4.80;;;18.30;99.90;;;;;;5054569;28;20056;-75
2022/06/29 02:27:29;;;;;;;7.95;4.68;;;18.40;99.90;;;;;;5054473;28;20053;-75
2022/06/29 02:29:55;;;;;;;8.40;4.68;;;18.40;99.90;;;;;;5054514;28;20503;-76
2022/06/29 02:35:05;;;;;;;7.20;4.40;;;18.40;99.90;;;;;;5054529;28;20060;-76
2022/06/29 02:37:31;;;;;;;6.55;3.88;;;18.40;99.90;;;;;;5053743;28;20057;-76
2022/06/29 02:39:56;;;;;;;6.35;4.70;;;18.40;99.90;;;;;;5070802;28;20076;-76
2022/06/29 02:42:22;;;;;;;9.30;5.38;;;18.30;99.90;;;;;;5053963;28;20052;-76
2022/06/29 02:44:48;;;;;;;7.05;4.75;;;18.40;99.90;;;;;;5054264;28;20041;-75
2022/06/29 02:47:16;;;;;;;6.57;4.20;;;18.40;99.90;;;;;;5054168;28;20480;-76
2022/06/29 02:49:42;;;;;;;6.90;4.80;;;18.50;99.90;;;;;;5054121;28;20057;-75
2022/06/29 02:52:08;;;;;;;6.57;4.97;;;18.40;99.90;;;;;;5054666;28;20235;-76
2022/06/29 02:54:34;;;;;;;8.40;5.15;;;18.30;99.90;;;;;;5037583;28;20053;-75
2022/06/29 02:56:59;;;;;;;10.30;5.78;;;18.20;99.90;;;;;;5037342;28;20094;-75
2022/06/29 02:59:25;;;;;;;8.35;4.65;;;18.10;99.90;;;;;;5037399;28;20103;-76
2022/06/29 03:01:51;;;;;;;9.95;5.38;;;18.10;99.90;;;;;;5053593;28;20480;-75
2022/06/29 03:04:16;;;;;;;8.27;5.07;;;18.20;99.90;;;;;;5053850;28;20080;-75
2022/06/29 03:06:42;;;;;;;10.63;5.47;;;18.20;99.90;;;;;;5053400;28;20053;-76
2022/06/29 03:09:08;;;;;;;11.32;5.63;;;18.20;99.90;;;;;;5053726;28;20106;-75
2022/06/29 03:11:34;;;;;;;8.38;5.57;;;18.20;99.90;;;;;;5053442;28;20044;-76
2022/06/29 03:14:00;;;;;;;9.32;5.38;;;18.20;99.90;;;;;;5037118;28;20503;-75
2022/06/29 03:16:26;;;;;;;8.80;5.30;;;18.20;99.90;;;;;;5053582;28;20080;-75
2022/06/29 03:18:51;;;;;;;9.27;5.95;;;18.30;99.90;;;;;;5053495;28;20462;-75
2022/06/29 03:21:18;;;;;;;9.98;5.85;;;18.30;99.90;;;;;;5052910;28;20045;-76
2022/06/29 03:23:44;;;;;;;11.77;6.35;;;18.20;99.90;;;;;;5053574;28;20041;-75
2022/06/29 03:26:11;;;;;;;6.63;4.78;;;18.30;99.90;;;;;;5036851;28;20442;-75
2022/06/29 03:28:37;;;;;;;10.07;5.57;;;18.30;99.90;;;;;;5036696;28;20139;-75
2022/06/29 03:31:03;;;;;;;9.90;6.28;;;18.30;99.90;;;;;;5053301;28;20507;-75
2022/06/29 03:33:29;;;;;;;8.45;5.88;;;18.30;99.90;;;;;;5036766;28;20048;-75
2022/06/29 03:35:55;;;;;;;8.05;5.68;;;18.20;99.90;;;;;;5053161;28;20502;-76
2022/06/29 03:38:21;;;;;;;10.10;5.65;;;18.20;99.90;;;;;;5036266;28;20045;-75
2022/06/29 03:40:47;;;;;;;11.48;5.53;;;18.10;99.90;;;;;;5036230;28;20045;-75
2022/06/29 03:43:12;;;;;;;10.55;5.50;;;18.10;99.90;;;;;;5053167;28;20132;-75
2022/06/29 03:45:38;;;;;;;8.35;5.38;;;18.10;99.90;;;;;;5053098;28;20131;-75
2022/06/29 03:48:05;;;;;;;8.57;6.55;;;18.00;99.90;;;;;;5036427;28;20055;-76
2022/06/29 03:50:31;;;;;;;8.70;4.97;;;18.00;99.90;;;;;;5052999;28;20060;-75
2022/06/29 03:52:56;;;;;;;9.77;6.05;;;18.00;99.90;;;;;;5053097;28;20060;-75
2022/06/29 03:55:22;;;;;;;10.25;5.75;;;18.10;99.90;;;;;;5052983;28;20059;-75
2022/06/29 03:57:48;;;;;;;9.18;6.05;;;18.00;99.90;;;;;;5052568;28;20068;-75
2022/06/29 04:00:14;;;;;;;7.65;5.80;;;17.90;99.90;;;;;;5052902;28;20094;-75
2022/06/29 04:02:40;;;;;;;7.35;5.63;;;18.00;99.90;;;;;;5052785;28;20053;-75
2022/06/29 04:05:06;;;;;;;8.25;5.32;;;18.10;99.90;;;;;;5052838;28;20443;-76
2022/06/29 04:07:32;;;;;;;5.80;4.90;;;18.20;99.90;;;;;;5052760;28;20071;-75
2022/06/29 04:09:59;;;;;;;8.63;5.97;;;18.20;99.90;;;;;;5053291;28;20544;-75
2022/06/29 04:12:34;;;;;;;8.15;5.90;;;18.20;99.90;;;;;;5053360;28;20056;-75
2022/06/29 04:15:01;;;;;;;6.72;4.75;;;18.20;99.90;;;;;;5052646;28;20045;-75
2022/06/29 04:17:27;;;;;;;5.28;4.63;;;18.10;99.90;;;;;;5035840;28;20049;-77
2022/06/29 04:19:53;;;;;;;6.88;5.55;;;18.10;99.90;;;;;;5052602;28;20048;-75
2022/06/29 04:22:25;;;;;;;11.27;5.22;;;18.10;99.90;;;;;;5036129;28;20104;-75
2022/06/29 04:24:51;;;;;;;7.82;5.90;;;18.20;99.90;;;;;;5035954;28;20049;-75
2022/06/29 04:27:17;;;;;;;9.60;5.78;;;18.20;99.90;;;;;;5052593;28;20068;-76
2022/06/29 04:29:43;;;;;;;9.13;5.82;;;18.20;99.90;;;;;;5053530;28;20071;-75
2022/06/29 04:32:10;;;;;;;7.45;5.57;;;18.30;99.90;;;;;;5055994;28;20507;-75
2022/06/29 04:34:36;;;;;;;11.95;5.70;;;18.30;99.90;;;;;;5056616;28;20053;-75
2022/06/29 04:37:02;;;;;;;9.15;5.78;;;18.40;99.90;;;;;;5056042;28;20045;-75
2022/06/29 04:39:28;;;;;;;10.20;5.80;;;18.30;99.90;;;;;;5073164;28;20044;-75
2022/06/29 04:41:54;;;;;;;9.75;6.38;;;18.40;99.90;;;;;;5039546;28;20052;-75
2022/06/29 04:44:21;;;;;;;11.77;6.30;;;18.40;99.90;;;;;;5056476;28;20200;-77
2022/06/29 04:46:46;;;;;;;11.50;5.60;;;18.40;99.90;;;;;;5039753;28;20060;-76
2022/06/29 04:49:12;;;;;;;9.20;6.00;;;18.50;99.90;;;;;;5056446;28;20049;-75
2022/06/29 04:51:38;;;;;;;7.57;5.43;;;18.50;99.90;;;;;;5056359;28;20049;-75
2022/06/29 04:54:04;;;;;;;7.38;5.40;;;18.60;99.90;;;;;;5056013;28;20053;-75
2022/06/29 04:56:32;;;;;;;5.97;4.80;;;18.70;99.90;;;;;;5056179;28;20532;-75
2022/06/29 04:58:59;;;;;;;9.40;5.45;;;18.80;99.90;;;;;;5056202;28;20045;-75
2022/06/29 05:01:27;;;;;;;9.43;6.72;;;18.80;99.90;;;;;;5039585;28;20049;-75
2022/06/29 05:03:53;;;;;;;11.85;6.53;;;18.80;99.90;;;;;;5056127;28;20056;-75
2022/06/29 05:06:22;;;;;;;9.25;6.25;;;18.80;99.90;;;;;;5072432;28;20055;-75
2022/06/29 05:08:51;;;;;;;8.57;6.90;;;18.80;99.90;;;;;;5056215;28;20396;-75
2022/06/29 05:11:18;;;;;;;7.75;6.22;;;18.90;99.90;;;;;;5055943;28;20041;-75
2022/06/29 05:13:45;;;;;;;10.02;5.80;;;18.80;99.90;;;;;;5055987;28;20053;-75
2022/06/29 05:16:11;;;;;;;8.55;5.97;;;18.80;99.90;;;;;;5055816;28;20053;-75
2022/06/29 05:18:37;;;;;;;9.38;6.00;;;18.90;99.90;;;;;;5055848;28;20392;-75
2022/06/29 05:21:03;;;;;;;9.75;5.90;;;19.00;99.90;;;;;;5055811;28;20056;-76
2022/06/29 05:23:31;;;;;;;8.43;6.40;;;19.10;99.90;;;;;;5039502;28;20400;-76
2022/06/29 05:25:57;;;;;;;11.25;6.68;;;19.10;99.90;;;;;;5055454;28;20514;-75
2022/06/29 05:28:23;;;;;;;10.20;7.03;;;19.30;99.90;;;;;;5072272;28;20048;-76
2022/06/29 05:30:50;;;;;;;9.57;6.00;;;19.30;99.90;;;;;;5055659;28;20049;-76
2022/06/29 05:33:16;;;;;;;8.82;6.38;;;19.30;99.90;;;;;;5055536;28;20060;-75
2022/06/29 05:35:42;;;;;;;8.43;6.85;;;19.40;99.90;;;;;;5056512;28;20049;-75
2022/06/29 05:38:08;;;;;;;11.57;6.07;;;19.30;99.90;;;;;;5054914;28;20060;-75
2022/06/29 05:40:34;;;;;;;8.52;6.47;;;19.30;99.90;;;;;;5055125;28;20053;-76
2022/06/29 05:43:00;;;;;;;9.27;6.85;;;19.30;99.90;;;;;;5054426;28;20128;-76
2022/06/29 05:45:26;;;;;;;9.35;6.68;;;19.30;99.90;;;;;;5038765;28;20128;-76
2022/06/29 05:47:53;;;;;;;9.82;6.50;;;19.30;99.90;;;;;;5055367;28;20136;-75
2022/06/29 05:50:20;;;;;;;9.35;7.07;;;19.40;99.90;;;;;;5056212;28;20178;-75
2022/06/29 05:52:45;;;;;;;9.25;7.03;;;19.60;99.90;;;;;;5055192;28;20476;-75
2022/06/29 05:55:11;;;;;;;13.85;7.35;;;19.60;99.90;;;;;;5055210;28;20045;-75
2022/06/29 05:57:37;;;;;;;7.95;6.43;;;19.60;99.90;;;;;;5054906;28;20041;-76
2022/06/29 06:00:05;;;;;;;10.77;6.32;;;19.60;99.90;;;;;;5055004;28;20088;-76
2022/06/29 06:02:30;;;;;;;12.80;7.53;;;19.60;99.90;;;;;;5055266;28;20045;-75
2022/06/29 06:04:56;;;;;;;12.82;7.30;;;19.60;99.90;;;;;;5054953;28;20049;-75
2022/06/29 06:07:22;;;;;;;12.13;7.50;;;19.60;99.90;;;;;;5055242;28;20076;-76
2022/06/29 06:09:48;;;;;;;11.05;6.65;;;19.70;99.90;;;;;;5054888;28;20059;-75
2022/06/29 06:12:13;;;;;;;14.70;7.72;;;19.80;99.90;;;;;;5054550;28;20044;-76
2022/06/29 06:14:39;;;;;;;11.20;6.75;;;19.80;99.90;;;;;;5055002;28;20053;-75
2022/06/29 06:17:05;;;;;;;8.38;6.72;;;19.90;99.90;;;;;;5054693;28;20048;-76
2022/06/29 06:19:31;;;;;;;7.32;5.63;;;20.00;99.90;;;;;;5054383;28;20132;-75
2022/06/29 06:21:56;;;;;;;9.98;5.72;;;20.10;99.90;;;;;;5054507;28;20060;-75
2022/06/29 06:24:22;;;;;;;8.05;5.70;;;20.10;99.90;;;;;;5054329;28;20061;-75
2022/06/29 06:26:48;;;;;;;8.00;4.97;;;20.20;99.90;;;;;;5054065;28;20049;-76
2022/06/29 06:29:13;;;;;;;9.52;5.03;;;20.30;99.90;;;;;;5054487;28;20060;-75
2022/06/29 06:31:39;;;;;;;6.28;4.70;;;20.50;99.90;;;;;;5054763;28;20049;-76
2022/06/29 06:34:05;;;;;;;7.78;4.50;;;20.40;99.90;;;;;;5054932;28;20141;-75
2022/06/29 06:36:30;;;;;;;5.75;4.30;;;20.50;99.90;;;;;;5054096;28;20057;-75
2022/06/29 06:38:56;;;;;;;5.22;4.38;;;20.50;99.90;;;;;;5054524;28;20064;-76
2022/06/29 06:41:27;;;;;;;6.28;4.40;;;20.50;99.90;;;;;;5037192;28;20113;-77
2022/06/29 06:43:55;;;;;;;5.25;3.85;;;20.60;99.90;;;;;;5037339;28;20064;-75
2022/06/29 06:46:21;;;;;;;10.45;4.35;;;20.60;99.90;;;;;;5054458;28;20084;-76
2022/06/29 06:48:49;;;;;;;8.15;3.60;;;20.90;99.90;;;;;;5054233;28;20092;-75
2022/06/29 06:51:15;;;;;;;6.57;3.75;;;21.00;99.90;;;;;;5070914;28;20111;-76
2022/06/29 06:53:41;;;;;;;8.07;3.90;;;21.10;99.90;;;;;;5053826;28;20438;-75
2022/06/29 06:56:06;;;;;;;6.10;3.28;;;21.20;99.90;;;;;;5052762;28;20048;-81
2022/06/29 06:58:35;;;;;;;8.30;3.80;;;21.40;99.90;;;;;;5053026;28;20087;-81
2022/06/29 07:01:11;;;;;;;6.68;3.33;;;21.40;99.90;;;;;;5053869;28;20055;-81
2022/06/29 07:03:37;;;;;;;4.25;2.90;;;21.50;99.90;;;;;;5053804;28;20055;-80
2022/06/29 07:06:08;;;;;;;4.97;2.88;;;21.60;99.90;;;;;;5053916;28;20045;-78
2022/06/29 07:08:36;;;;;;;4.50;2.72;;;21.70;99.90;;;;;;5053699;28;20045;-79
2022/06/29 07:11:02;;;;;;;4.18;3.08;;;21.70;99.90;;;;;;5053460;28;20513;-78
2022/06/29 07:13:28;;;;;;;4.85;3.05;;;21.80;99.90;;;;;;5070296;28;20538;-79
2022/06/29 07:15:54;;;;;;;4.53;2.58;;;21.90;99.90;;;;;;5037092;28;20048;-78
2022/06/29 07:18:20;;;;;;;8.95;3.20;;;22.00;99.90;;;;;;5053244;28;20041;-78
2022/06/29 07:20:46;;;;;;;2.90;2.33;;;22.00;99.90;;;;;;5037166;28;20041;-79
2022/06/29 07:23:11;;;;;;;5.10;2.58;;;21.90;99.90;;;;;;5053225;28;20047;-78
2022/06/29 07:25:37;;;;;;;3.42;2.38;;;21.90;99.90;;;;;;5053702;28;20044;-78
2022/06/29 07:28:03;;;;;;;8.27;3.00;;;22.00;99.90;;;;;;5055012;28;20045;-77
2022/06/29 07:30:29;;;;;;;5.65;2.55;;;22.00;99.90;;;;;;5059448;28;20047;-76
2022/06/29 07:32:55;;;;;;;3.00;2.33;;;22.10;99.90;;;;;;5053489;28;20049;-80
2022/06/29 07:35:20;;;;;;;7.15;3.13;;;22.10;99.90;;;;;;5053518;28;20048;-79
2022/06/29 07:37:46;;;;;;;4.70;2.20;;;22.30;99.90;;;;;;5052867;28;20052;-79
2022/06/29 07:40:12;;;;;;;4.75;2.53;;;22.30;99.90;;;;;;5053215;28;20076;-79
2022/06/29 07:42:38;;;;;;;5.25;2.70;;;22.50;99.90;;;;;;5052936;28;20049;-79
2022/06/29 07:45:05;;;;;;;4.40;2.28;;;22.60;99.90;;;;;;5053120;28;20044;-79
2022/06/29 07:47:31;;;;;;;5.78;2.28;;;22.80;99.90;;;;;;5053376;28;20049;-80
2022/06/29 07:49:58;;;;;;;5.30;2.30;;;22.80;99.90;;;;;;5036480;28;20059;-79
2022/06/29 07:52:24;;;;;;;6.88;2.75;;;22.90;99.90;;;;;;5052915;28;20049;-80
2022/06/29 07:54:49;;;;;;;8.00;2.53;;;22.90;99.90;;;;;;5052695;28;20396;-81
2022/06/29 07:57:15;;;;;;;5.57;2.42;;;22.90;99.90;;;;;;5052783;28;20048;-79
2022/06/29 07:59:41;;;;;;;3.70;2.10;;;23.00;99.90;;;;;;5052861;28;20052;-79
2022/06/29 08:02:07;;;;;;;3.17;2.33;;;23.10;99.90;;;;;;5069549;28;20051;-79
2022/06/29 08:04:32;;;;;;;4.25;2.22;;;23.20;99.90;;;;;;5036135;28;20060;-81
2022/06/29 08:06:58;;;;;;;6.80;1.90;;;23.40;99.90;;;;;;5052283;28;20059;-81
2022/06/29 08:09:24;;;;;;;5.78;2.47;;;23.50;99.90;;;;;;5053856;28;20056;-79
2022/06/29 08:11:52;;;;;;;4.93;2.13;;;23.50;99.90;;;;;;5052382;28;20110;-79
2022/06/29 08:14:18;;;;;;;4.70;2.30;;;23.50;99.90;;;;;;5052730;28;20106;-80
2022/06/29 08:16:44;;;;;;;3.30;1.65;;;23.50;99.90;;;;;;5052604;28;20045;-80
2022/06/29 08:19:09;;;;;;;2.65;2.08;;;23.70;99.90;;;;;;5052552;28;20048;-80
2022/06/29 08:21:35;;;;;;;7.18;2.15;;;23.70;99.90;;;;;;5052609;28;20045;-80
2022/06/29 08:24:01;;;;;;;5.70;2.00;;;23.80;99.90;;;;;;5069020;28;20526;-80
2022/06/29 08:26:26;;;;;;;3.72;2.00;;;23.80;99.90;;;;;;5036047;28;20052;-79
2022/06/29 08:28:52;;;;;;;2.55;1.67;;;24.00;99.90;;;;;;5052501;28;20056;-80
2022/06/29 08:31:18;;;;;;;2.53;2.15;;;24.10;99.90;;;;;;5052518;28;20057;-80
2022/06/29 08:33:45;;;;;;;5.13;2.08;;;24.20;99.90;;;;;;5052474;28;20045;-79
2022/06/29 08:36:12;;;;;;;2.47;1.60;;;24.40;99.90;;;;;;5052039;28;20492;-80
2022/06/29 08:38:38;;;;;;;6.35;1.85;;;24.40;99.90;;;;;;5053215;28;20053;-78
2022/06/29 08:41:05;;;;;;;3.50;2.13;;;24.70;99.90;;;;;;5052142;28;20126;-77
2022/06/29 08:43:32;;;;;;;3.88;2.15;;;24.50;99.90;;;;;;5052352;28;20041;-78
2022/06/29 08:45:58;;;;;;;3.88;2.00;;;24.30;99.90;;;;;;5052386;28;20048;-79
2022/06/29 08:48:24;;;;;;;5.93;1.70;;;24.30;99.90;;;;;;5052459;28;20055;-77
2022/06/29 08:50:52;;;;;;;4.28;1.92;;;24.50;99.90;;;;;;5035703;28;20140;-78
2022/06/29 08:53:19;;;;;;;4.72;1.77;;;24.70;99.90;;;;;;5053068;28;20447;-77
2022/06/29 08:55:48;;;;;;;3.85;2.00;;;24.80;99.90;;;;;;5052306;28;20048;-77
2022/06/29 08:58:22;;;;;;;4.05;2.13;;;25.00;99.90;;;;;;5051913;28;20080;-77
2022/06/29 09:00:51;;;;;;;4.10;1.80;;;25.00;99.90;;;;;;5052473;28;20057;-77
2022/06/29 09:03:21;;;;;;;6.97;1.95;;;25.20;99.90;;;;;;5052219;28;20579;-82
2022/06/29 09:05:55;;;;;;;5.20;2.40;;;24.90;99.90;;;;;;5052213;28;20080;-84
2022/06/29 09:08:21;;;;;;;5.55;2.13;;;24.70;99.90;;;;;;5052312;28;20354;-83
2022/06/29 09:10:47;;;;;;;4.90;1.40;;;24.50;99.90;;;;;;5051873;28;20041;-84
2022/06/29 09:13:24;;;;;;;7.32;2.00;;;24.30;99.90;;;;;;5051552;28;20559;-83
2022/06/29 09:16:00;;;;;;;7.00;1.77;;;24.50;99.90;;;;;;5035550;28;20443;-83
2022/06/29 09:18:30;;;;;;;3.88;2.00;;;24.70;99.90;;;;;;5053245;28;20084;-84
2022/06/29 09:21:00;;;;;;;3.45;1.73;;;24.60;99.90;;;;;;5055506;28;20377;-83
2022/06/29 09:23:26;;;;;;;2.88;1.45;;;24.70;99.90;;;;;;5055748;28;20049;-84
2022/06/29 09:25:53;;;;;;;3.47;1.35;;;24.80;99.90;;;;;;5055540;28;20495;-78
2022/06/29 09:28:27;;;;;;;3.30;1.80;;;25.00;99.90;;;;;;5055660;28;20049;-79
2022/06/29 09:30:54;;;;;;;3.05;1.70;;;25.20;99.90;;;;;;5055853;28;20059;-84
2022/06/29 09:33:22;;;;;;;4.10;1.80;;;25.40;99.90;;;;;;5038362;28;20503;-78
2022/06/29 09:36:09;;;;;;;4.13;1.92;;;25.40;99.90;;;;;;5055211;28;20484;-77
2022/06/29 09:38:36;;;;;;;4.10;1.60;;;25.70;99.90;;;;;;5055423;28;20068;-78
2022/06/29 09:41:11;;;;;;;3.92;1.50;;;26.10;99.90;;;;;;5055017;28;20126;-74
2022/06/29 09:43:42;;;;;;;4.03;1.50;;;26.40;99.90;;;;;;5056687;28;20052;-93
2022/06/29 09:46:10;;;;;;;2.72;1.77;;;26.40;99.90;;;;;;5055245;28;20048;-82
2022/06/29 09:48:38;;;;;;;4.90;1.70;;;25.80;99.90;;;;;;5055512;28;20059;-84
2022/06/29 09:51:30;;;;;;;3.67;1.55;;;25.70;99.90;;;;;;5055323;28;20064;-83
2022/06/29 09:53:55;;;;;;;3.33;1.80;;;26.00;99.90;;;;;;5054816;28;20130;-82
2022/06/29 09:56:22;;;;;;;2.67;1.70;;;26.20;99.90;;;;;;5055092;28;20075;-81
2022/06/29 09:58:48;;;;;;;2.35;1.42;;;26.30;99.90;;;;;;5055133;28;20056;-83
2022/06/29 10:04:01;;;;;;;2.22;1.50;;;26.20;99.90;;;;;;5054810;28;20551;-81
2022/06/29 10:06:27;;;;;;;2.50;1.63;;;26.30;99.90;;;;;;5055366;28;20045;-80
2022/06/29 10:08:55;;;;;;;3.05;1.50;;;26.20;99.90;;;;;;5038313;28;20533;-76
2022/06/29 10:14:40;;;;;;;3.42;1.42;;;26.30;99.90;;;;;;5054993;28;20102;-79
2022/06/29 10:17:15;;;;;;;2.88;1.77;;;26.20;99.90;;;;;;5054486;28;20051;-79
2022/06/29 10:19:47;;;;;;;4.07;1.60;;;26.10;99.70;;;;;;5038392;28;20400;-79
2022/06/29 10:22:13;;;;;;;1.92;1.50;;;26.30;99.90;;;;;;5054349;28;20439;-81
2022/06/29 10:25:03;;;;;;;3.20;1.67;;;26.70;99.90;;;;;;5054569;28;20071;-82
2022/06/29 10:27:29;;;;;;;4.00;1.65;;;26.80;99.90;;;;;;5071667;28;20052;-84
2022/06/29 10:30:17;;;;;;;5.00;1.95;;;26.50;99.90;;;;;;5054245;28;20426;-84
2022/06/29 10:32:43;;;;;;;3.03;1.75;;;26.60;99.90;;;;;;5037812;28;20057;-83
2022/06/29 10:35:12;;;;;;;3.20;1.65;;;26.60;99.90;;;;;;5054344;28;20055;-83
2022/06/29 10:37:50;;;;;;;3.28;1.42;;;26.70;99.90;;;;;;5053939;28;20559;-83
2022/06/29 10:40:24;;;;;;;2.75;1.80;;;26.80;99.90;;;;;;5054357;28;20053;-84
2022/06/29 10:43:12;;;;;;;3.20;1.90;;;26.80;99.90;;;;;;5054062;28;20551;-84
2022/06/29 10:45:47;;;;;;;4.70;1.92;;;26.80;99.90;;;;;;5054226;28;20373;-84
2022/06/29 10:48:13;;;;;;;3.28;1.70;;;26.60;99.90;;;;;;5054013;28;20057;-81
2022/06/29 10:50:41;;;;;;;2.15;1.73;;;26.50;99.90;;;;;;5054136;28;20053;-83
2022/06/29 10:53:13;;;;;;;3.05;1.83;;;26.50;99.90;;;;;;5054171;28;20064;-85
2022/06/29 10:55:45;;;;;;;1.83;1.48;;;26.60;99.90;;;;;;5037418;28;20132;-84
2022/06/29 10:58:11;;;;;;;6.20;1.73;;;26.90;99.90;;;;;;5053386;28;20052;-83
2022/06/29 11:00:38;;;;;;;3.40;1.52;;;26.90;99.90;;;;;;5037343;28;20408;-83
2022/06/29 11:03:22;;;;;;;5.00;1.60;;;27.10;99.90;;;;;;5053897;28;20049;-81
2022/06/29 11:15:39;;;;;;;2.40;1.40;;;27.30;99.90;;;;;;5053877;28;20144;-83
2022/06/29 11:16:53;;;;;;;3.00;1.63;;;27.20;99.90;;;;;;5053551;28;20051;-84
2022/06/29 11:19:29;;;;;;;1.95;1.30;;;27.40;99.80;;;;;;5053293;28;20555;-81
2022/06/29 11:22:08;;;;;;;2.65;1.50;;;27.70;99.30;;;;;;5053548;28;20088;-81
2022/06/29 11:24:50;;;;;;;2.30;1.35;;;27.70;99.30;;;;;;5054009;28;20044;-90
2022/06/29 11:27:36;;;;;;;4.35;1.42;;;27.60;99.00;;;;;;5053983;28;20088;-91
2022/06/29 11:30:07;;;;;;;1.65;1.30;;;28.00;99.90;;;;;;5053629;28;20381;-90
2022/06/29 11:32:47;;;;;;;2.10;1.33;;;28.00;99.70;;;;;;5053904;28;20057;-94
2022/06/29 11:35:16;;;;;;;2.83;1.58;;;28.10;99.00;;;;;;5037034;28;20076;-78
2022/06/29 11:37:52;;;;;;;3.88;1.30;;;28.50;99.60;;;;;;5052532;28;20057;-79
2022/06/29 11:40:34;;;;;;;4.32;1.40;;;29.10;99.30;;;;;;5052803;28;20053;-85
2022/06/29 11:43:07;;;;;;;2.15;1.45;;;29.50;99.10;;;;;;5053007;28;20041;-76
2022/06/29 11:45:40;;;;;;;3.50;1.42;;;29.40;98.50;;;;;;5053280;28;20400;-75
2022/06/29 11:48:14;;;;;;;2.10;1.15;;;29.80;98.80;;;;;;5053986;28;20126;-77
2022/06/29 11:50:51;;;;;;;2.92;1.30;;;30.20;99.50;;;;;;5053185;28;20480;-77
2022/06/29 11:53:47;;;;;;;2.88;1.30;;;30.30;98.60;;;;;;5053041;28;20056;-77
2022/06/29 11:56:18;;;;;;;2.20;1.58;;;30.50;98.90;;;;;;5052596;28;20412;-77
2022/06/29 11:58:53;;;;;;;3.65;1.80;;;30.70;98.50;;;;;;5052644;28;20053;-77
2022/06/29 12:01:21;;;;;;;4.82;1.73;;;30.80;98.60;;;;;;5052977;28;20084;-77
2022/06/29 12:03:52;;;;;;;2.60;1.33;;;31.00;98.80;;;;;;5052880;28;20084;-77
2022/06/29 12:06:19;;;;;;;1.90;1.40;;;31.30;98.40;;;;;;5052843;28;20484;-77
2022/06/29 12:08:48;;;;;;;2.05;1.42;;;31.30;98.50;;;;;;5052525;28;20403;-77
2022/06/29 12:11:14;;;;;;;3.55;1.42;;;31.20;99.10;;;;;;5035917;28;20068;-77
2022/06/29 12:13:39;;;;;;;3.60;1.60;;;31.50;98.50;;;;;;5052497;28;20045;-78
2022/06/29 12:16:05;;;;;;;3.15;1.70;;;31.50;98.10;;;;;;5069199;28;20052;-77
2022/06/29 12:18:31;;;;;;;2.28;1.63;;;31.40;98.40;;;;;;5052284;28;20049;-78
2022/06/29 12:20:57;;;;;;;2.92;1.60;;;31.30;98.30;;;;;;5036012;28;20135;-78
2022/06/29 12:23:23;;;;;;;1.92;1.73;;;31.10;98.40;;;;;;5052600;28;20487;-78
2022/06/29 12:25:49;;;;;;;3.30;2.00;;;31.20;98.30;;;;;;5052522;28;20052;-78
2022/06/29 12:28:15;;;;;;;3.83;2.10;;;31.20;98.20;;;;;;5035962;28;20128;-77
2022/06/29 12:30:41;;;;;;;5.30;2.58;;;31.40;98.50;;;;;;5052452;28;20345;-77
2022/06/29 12:33:09;;;;;;;6.07;2.50;;;31.30;98.10;;;;;;5053536;28;20059;-78
2022/06/29 12:35:36;;;;;;;3.95;2.72;;;31.60;99.20;;;;;;5052423;28;20049;-77
2022/06/29 12:38:02;;;;;;;2.78;2.20;;;31.50;97.70;;;;;;5052084;28;20128;-77
2022/06/29 12:40:29;;;;;;;3.53;2.45;;;31.50;98.60;;;;;;5052434;28;20085;-77
2022/06/29 12:42:56;;;;;;;2.30;2.10;;;31.90;98.30;;;;;;5052023;28;20052;-77
2022/06/29 12:45:23;;;;;;;4.03;2.45;;;32.00;98.00;;;;;;5052432;28;20056;-77
2022/06/29 12:47:50;;;;;;;4.90;2.00;;;32.10;98.20;;;;;;5053351;28;20098;-77
2022/06/29 12:50:16;;;;;;;2.80;1.90;;;31.90;98.60;;;;;;5052174;28;20052;-77
2022/06/29 12:52:46;;;;;;;4.38;2.15;;;32.00;98.50;;;;;;5054311;28;20041;-77
2022/06/29 12:55:17;;;;;;;7.90;2.42;;;32.50;98.60;;;;;;5039918;28;20365;-77
2022/06/29 12:57:43;;;;;;;4.13;2.30;;;32.40;98.50;;;;;;5057288;28;20037;-77
2022/06/29 13:00:12;;;;;;;4.47;2.00;;;32.20;98.30;;;;;;5056190;28;20131;-77
2022/06/29 13:02:39;;;;;;;3.50;2.88;;;32.20;98.50;;;;;;5039259;28;20128;-77
2022/06/29 13:05:07;;;;;;;4.53;2.45;;;32.20;98.40;;;;;;5072520;28;20041;-87